Current Conditions
Partly Cloudy
Conditions



Pressure
1017.92 (mb) - 30.06 (inHG)
Visibility

10.0 (km) - 6.2 (miles)
Temperature
4  °C
Temperature
0  °C
Dewpoint
75  %
 Humidity
Wind Speed
35  km/h
19  kts
22  mph
9.8  m/s
Wind Direction
N
45°
E
90°
135°
S
180°
225°
W
270°
315°
 260°

Due West
Airport Data
LOWL
Linz-Hörsching Airport / Vogler Air Base
Metar :LOWL 201320Z 26019KT 9999 FEW022 SCT026 BKN070 04/M00 Q1018 TEMPO 4000 SHSN
Thu 20th January 14:20 pm
Raw Metar Info
Raw METAR is the most common format in the world for the transmission of observational weather data. It is highly standardized through the International Civil Aviation Organization (ICAO), which allows it to be understood throughout most of the world.
API Info
Data Provided by
https://www.checkwx.com/weather/LOWL

Aviation Weather providing METAR, TAF, AIRMET, SIGMET and OUTLOOK Weather Reports
© Info
CSS/SVG/PHP scripts were developed by weather34 for use in the weather34 template © 2015-2022

Guide Info provided by Metar-Wikipedia